Terminal Aerodrome Forecast
Issued by NWS

Home | Current Version | Previous Version | Graphics & Text | Print | Product List | Glossary On
Versions: 1 2 3 4 5 6 7 8 9 10 11 12 13 14 15 16 17 18 19 20 21 22 23 24 25 26 27 28
000
FTUS43 KLOT 270200 AAA
TAFGYY
TAF AMD
KGYY 270200Z 2702/2724 05006KT P6SM BKN200
     FM270500 08005KT P6SM VCSH OVC070
     FM270700 11005KT 3SM SHRA VCTS OVC030CB
     FM271500 16007KT P6SM BKN025
     FM271800 20010KT P6SM SCT035 BKN200=

USA.gov is the U.S. government's official web portal to all federal, state and local government web resources and services.